sensor_id;sensor_type;location;lat;lon;timestamp;temperature;humidity
13223;DHT22;6676;45.192;5.722;2023-02-12T00:05:03;2.80;99.90
13223;DHT22;6676;45.192;5.722;2023-02-12T00:07:55;2.70;99.90
13223;DHT22;6676;45.192;5.722;2023-02-12T00:10:47;2.60;99.90
13223;DHT22;6676;45.192;5.722;2023-02-12T00:13:38;2.60;99.90
13223;DHT22;6676;45.192;5.722;2023-02-12T00:16:30;2.60;99.90
13223;DHT22;6676;45.192;5.722;2023-02-12T00:19:21;2.50;99.90
13223;DHT22;6676;45.192;5.722;2023-02-12T00:22:14;2.60;99.90
13223;DHT22;6676;45.192;5.722;2023-02-12T00:25:07;2.60;99.90
13223;DHT22;6676;45.192;5.722;2023-02-12T00:27:59;2.60;99.90
13223;DHT22;6676;45.192;5.722;2023-02-12T00:30:51;2.60;99.90
13223;DHT22;6676;45.192;5.722;2023-02-12T00:33:43;2.60;99.90
13223;DHT22;6676;45.192;5.722;2023-02-12T00:36:35;2.70;99.90
13223;DHT22;6676;45.192;5.722;2023-02-12T00:39:26;2.70;99.90
13223;DHT22;6676;45.192;5.722;2023-02-12T00:45:00;2.80;99.90
13223;DHT22;6676;45.192;5.722;2023-02-12T00:47:52;2.80;99.90
13223;DHT22;6676;45.192;5.722;2023-02-12T00:50:45;2.80;99.90
13223;DHT22;6676;45.192;5.722;2023-02-12T00:53:37;2.70;99.90
13223;DHT22;6676;45.192;5.722;2023-02-12T00:56:29;2.60;99.90
13223;DHT22;6676;45.192;5.722;2023-02-12T00:59:20;2.60;99.90
13223;DHT22;6676;45.192;5.722;2023-02-12T01:02:12;2.50;99.90
13223;DHT22;6676;45.192;5.722;2023-02-12T01:05:04;2.40;99.90
13223;DHT22;6676;45.192;5.722;2023-02-12T01:07:55;2.40;99.90
13223;DHT22;6676;45.192;5.722;2023-02-12T01:10:54;2.50;99.90
13223;DHT22;6676;45.192;5.722;2023-02-12T01:13:46;2.50;99.90
13223;DHT22;6676;45.192;5.722;2023-02-12T01:16:38;2.40;99.90
13223;DHT22;6676;45.192;5.722;2023-02-12T01:19:29;2.50;99.90
13223;DHT22;6676;45.192;5.722;2023-02-12T01:22:21;2.50;99.90
13223;DHT22;6676;45.192;5.722;2023-02-12T01:27:57;2.50;99.90
13223;DHT22;6676;45.192;5.722;2023-02-12T01:33:33;2.50;99.90
13223;DHT22;6676;45.192;5.722;2023-02-12T01:39:05;2.60;99.90
13223;DHT22;6676;45.192;5.722;2023-02-12T01:41:57;2.50;99.90
13223;DHT22;6676;45.192;5.722;2023-02-12T01:48:22;2.40;99.90
13223;DHT22;6676;45.192;5.722;2023-02-12T01:54:05;2.20;99.90
13223;DHT22;6676;45.192;5.722;2023-02-12T01:57:13;2.30;99.90
13223;DHT22;6676;45.192;5.722;2023-02-12T02:00:08;2.20;99.90
13223;DHT22;6676;45.192;5.722;2023-02-12T02:03:03;2.20;99.90
13223;DHT22;6676;45.192;5.722;2023-02-12T02:05:57;2.10;99.90
13223;DHT22;6676;45.192;5.722;2023-02-12T02:08:49;2.00;99.90
13223;DHT22;6676;45.192;5.722;2023-02-12T02:14:21;1.90;99.90
13223;DHT22;6676;45.192;5.722;2023-02-12T02:30:31;2.00;99.90
13223;DHT22;6676;45.192;5.722;2023-02-12T02:33:36;1.90;99.90
13223;DHT22;6676;45.192;5.722;2023-02-12T02:39:14;1.90;99.90
13223;DHT22;6676;45.192;5.722;2023-02-12T02:42:08;1.80;99.90
13223;DHT22;6676;45.192;5.722;2023-02-12T02:45:03;1.90;99.90
13223;DHT22;6676;45.192;5.722;2023-02-12T02:53:21;1.70;99.90
13223;DHT22;6676;45.192;5.722;2023-02-12T02:56:15;1.70;99.90
13223;DHT22;6676;45.192;5.722;2023-02-12T03:01:53;1.70;99.90
13223;DHT22;6676;45.192;5.722;2023-02-12T03:04:47;1.60;99.90
13223;DHT22;6676;45.192;5.722;2023-02-12T03:07:41;1.50;99.90
13223;DHT22;6676;45.192;5.722;2023-02-12T03:13:24;1.50;99.90
13223;DHT22;6676;45.192;5.722;2023-02-12T03:16:21;1.50;99.90
13223;DHT22;6676;45.192;5.722;2023-02-12T03:19:17;1.50;99.90
13223;DHT22;6676;45.192;5.722;2023-02-12T03:24:50;1.50;99.90
13223;DHT22;6676;45.192;5.722;2023-02-12T03:33:04;1.30;99.90
13223;DHT22;6676;45.192;5.722;2023-02-12T03:35:58;1.20;99.90
13223;DHT22;6676;45.192;5.722;2023-02-12T03:38:54;1.20;99.90
13223;DHT22;6676;45.192;5.722;2023-02-12T03:41:51;1.30;99.90
13223;DHT22;6676;45.192;5.722;2023-02-12T03:44:47;1.20;99.90
13223;DHT22;6676;45.192;5.722;2023-02-12T03:53:06;1.20;99.90
13223;DHT22;6676;45.192;5.722;2023-02-12T03:56:00;1.20;99.90
13223;DHT22;6676;45.192;5.722;2023-02-12T04:01:34;1.20;99.90
13223;DHT22;6676;45.192;5.722;2023-02-12T04:07:05;1.10;99.90
13223;DHT22;6676;45.192;5.722;2023-02-12T04:09:56;1.10;99.90
13223;DHT22;6676;45.192;5.722;2023-02-12T04:15:39;1.10;99.90
13223;DHT22;6676;45.192;5.722;2023-02-12T04:18:34;1.10;99.90
13223;DHT22;6676;45.192;5.722;2023-02-12T04:24:17;1.20;99.90
13223;DHT22;6676;45.192;5.722;2023-02-12T04:27:13;1.10;99.90
13223;DHT22;6676;45.192;5.722;2023-02-12T04:30:08;1.20;99.90
13223;DHT22;6676;45.192;5.722;2023-02-12T04:33:02;1.30;99.90
13223;DHT22;6676;45.192;5.722;2023-02-12T04:38:40;1.20;99.90
13223;DHT22;6676;45.192;5.722;2023-02-12T04:44:17;1.20;99.90
13223;DHT22;6676;45.192;5.722;2023-02-12T04:47:11;1.20;99.90
13223;DHT22;6676;45.192;5.722;2023-02-12T04:50:02;1.20;99.90
13223;DHT22;6676;45.192;5.722;2023-02-12T04:52:54;1.20;99.90
13223;DHT22;6676;45.192;5.722;2023-02-12T04:55:45;1.20;99.90
13223;DHT22;6676;45.192;5.722;2023-02-12T04:58:38;1.10;99.90
13223;DHT22;6676;45.192;5.722;2023-02-12T05:01:30;1.10;99.90
13223;DHT22;6676;45.192;5.722;2023-02-12T05:04:23;1.10;99.90
13223;DHT22;6676;45.192;5.722;2023-02-12T05:07:15;1.10;99.90
13223;DHT22;6676;45.192;5.722;2023-02-12T05:10:09;1.00;99.90
13223;DHT22;6676;45.192;5.722;2023-02-12T05:13:01;1.00;99.90
13223;DHT22;6676;45.192;5.722;2023-02-12T05:15:53;1.00;99.90
13223;DHT22;6676;45.192;5.722;2023-02-12T05:18:44;1.00;99.90
13223;DHT22;6676;45.192;5.722;2023-02-12T05:24:19;1.00;99.90
13223;DHT22;6676;45.192;5.722;2023-02-12T05:27:10;0.90;99.90
13223;DHT22;6676;45.192;5.722;2023-02-12T05:30:01;0.90;99.90
13223;DHT22;6676;45.192;5.722;2023-02-12T05:35:35;1.00;99.90
13223;DHT22;6676;45.192;5.722;2023-02-12T05:38:26;1.00;99.90
13223;DHT22;6676;45.192;5.722;2023-02-12T05:41:20;1.00;99.90
13223;DHT22;6676;45.192;5.722;2023-02-12T05:44:12;1.00;99.90
13223;DHT22;6676;45.192;5.722;2023-02-12T05:47:04;1.00;99.90
13223;DHT22;6676;45.192;5.722;2023-02-12T05:49:56;1.00;99.90
13223;DHT22;6676;45.192;5.722;2023-02-12T05:55:33;1.00;99.90
13223;DHT22;6676;45.192;5.722;2023-02-12T05:58:24;1.10;99.90
13223;DHT22;6676;45.192;5.722;2023-02-12T06:03:54;1.10;99.90
13223;DHT22;6676;45.192;5.722;2023-02-12T06:06:46;1.00;99.90
13223;DHT22;6676;45.192;5.722;2023-02-12T06:09:37;1.00;99.90
13223;DHT22;6676;45.192;5.722;2023-02-12T06:12:29;0.90;99.90
13223;DHT22;6676;45.192;5.722;2023-02-12T06:17:58;1.00;99.90
13223;DHT22;6676;45.192;5.722;2023-02-12T06:23:29;0.90;99.90
13223;DHT22;6676;45.192;5.722;2023-02-12T06:26:21;0.80;99.90
13223;DHT22;6676;45.192;5.722;2023-02-12T06:29:13;0.80;99.90
13223;DHT22;6676;45.192;5.722;2023-02-12T06:32:06;0.70;99.90
13223;DHT22;6676;45.192;5.722;2023-02-12T06:34:58;0.70;99.90
13223;DHT22;6676;45.192;5.722;2023-02-12T06:37:50;0.70;99.90
13223;DHT22;6676;45.192;5.722;2023-02-12T06:40:42;0.80;99.90
13223;DHT22;6676;45.192;5.722;2023-02-12T06:46:14;0.70;99.90
13223;DHT22;6676;45.192;5.722;2023-02-12T06:51:46;0.60;99.90
13223;DHT22;6676;45.192;5.722;2023-02-12T06:57:16;0.60;99.90
13223;DHT22;6676;45.192;5.722;2023-02-12T07:00:09;0.50;99.90
13223;DHT22;6676;45.192;5.722;2023-02-12T07:03:01;0.60;99.90
13223;DHT22;6676;45.192;5.722;2023-02-12T07:05:53;0.60;99.90
13223;DHT22;6676;45.192;5.722;2023-02-12T07:08:45;0.70;99.90
13223;DHT22;6676;45.192;5.722;2023-02-12T07:11:38;0.60;99.90
13223;DHT22;6676;45.192;5.722;2023-02-12T07:14:30;0.60;99.90
13223;DHT22;6676;45.192;5.722;2023-02-12T07:17:21;0.70;99.90
13223;DHT22;6676;45.192;5.722;2023-02-12T07:20:13;0.70;99.90
13223;DHT22;6676;45.192;5.722;2023-02-12T07:23:05;0.70;99.90
13223;DHT22;6676;45.192;5.722;2023-02-12T07:31:19;1.00;99.90
13223;DHT22;6676;45.192;5.722;2023-02-12T07:34:11;1.00;99.90
13223;DHT22;6676;45.192;5.722;2023-02-12T07:37:03;1.00;99.90
13223;DHT22;6676;45.192;5.722;2023-02-12T07:42:41;1.00;99.90
13223;DHT22;6676;45.192;5.722;2023-02-12T07:50:51;1.10;99.90
13223;DHT22;6676;45.192;5.722;2023-02-12T07:53:43;1.10;99.90
13223;DHT22;6676;45.192;5.722;2023-02-12T07:56:36;1.30;99.90
13223;DHT22;6676;45.192;5.722;2023-02-12T07:59:28;1.30;99.90
13223;DHT22;6676;45.192;5.722;2023-02-12T08:02:20;1.40;99.90
13223;DHT22;6676;45.192;5.722;2023-02-12T08:05:13;1.40;99.90
13223;DHT22;6676;45.192;5.722;2023-02-12T08:10:46;1.50;99.90
13223;DHT22;6676;45.192;5.722;2023-02-12T08:16:20;1.50;99.90
13223;DHT22;6676;45.192;5.722;2023-02-12T08:19:12;1.60;99.90
13223;DHT22;6676;45.192;5.722;2023-02-12T08:22:06;1.70;99.90
13223;DHT22;6676;45.192;5.722;2023-02-12T08:24:57;1.80;99.90
13223;DHT22;6676;45.192;5.722;2023-02-12T08:27:49;1.90;99.90
13223;DHT22;6676;45.192;5.722;2023-02-12T08:30:41;1.90;99.90
13223;DHT22;6676;45.192;5.722;2023-02-12T08:36:21;1.90;99.90
13223;DHT22;6676;45.192;5.722;2023-02-12T08:41:54;1.90;99.90
13223;DHT22;6676;45.192;5.722;2023-02-12T08:47:26;2.10;99.90
13223;DHT22;6676;45.192;5.722;2023-02-12T08:50:19;2.20;99.90
13223;DHT22;6676;45.192;5.722;2023-02-12T08:53:10;2.30;99.90
13223;DHT22;6676;45.192;5.722;2023-02-12T08:56:02;2.40;99.90
13223;DHT22;6676;45.192;5.722;2023-02-12T08:58:54;2.40;99.90
13223;DHT22;6676;45.192;5.722;2023-02-12T09:01:49;2.40;99.90
13223;DHT22;6676;45.192;5.722;2023-02-12T09:07:25;2.60;99.90
13223;DHT22;6676;45.192;5.722;2023-02-12T09:10:17;2.60;99.90
13223;DHT22;6676;45.192;5.722;2023-02-12T09:15:58;2.80;99.90
13223;DHT22;6676;45.192;5.722;2023-02-12T09:18:50;2.90;99.90
13223;DHT22;6676;45.192;5.722;2023-02-12T09:21:42;3.00;99.90
13223;DHT22;6676;45.192;5.722;2023-02-12T09:29:52;3.10;99.90
13223;DHT22;6676;45.192;5.722;2023-02-12T09:38:03;3.30;99.90
13223;DHT22;6676;45.192;5.722;2023-02-12T09:43:38;3.40;99.90
13223;DHT22;6676;45.192;5.722;2023-02-12T09:49:16;3.50;99.90
13223;DHT22;6676;45.192;5.722;2023-02-12T09:54:51;3.60;99.90
13223;DHT22;6676;45.192;5.722;2023-02-12T09:57:43;3.80;99.90
13223;DHT22;6676;45.192;5.722;2023-02-12T10:03:32;4.00;99.90
13223;DHT22;6676;45.192;5.722;2023-02-12T10:09:15;4.20;99.90
13223;DHT22;6676;45.192;5.722;2023-02-12T10:12:12;4.30;99.90
13223;DHT22;6676;45.192;5.722;2023-02-12T10:15:17;4.40;99.90
13223;DHT22;6676;45.192;5.722;2023-02-12T10:18:21;4.50;99.90
13223;DHT22;6676;45.192;5.722;2023-02-12T10:21:20;4.60;99.90
13223;DHT22;6676;45.192;5.722;2023-02-12T10:24:25;4.70;99.90
13223;DHT22;6676;45.192;5.722;2023-02-12T10:27:21;4.80;99.90
13223;DHT22;6676;45.192;5.722;2023-02-12T10:30:23;5.00;99.90
13223;DHT22;6676;45.192;5.722;2023-02-12T10:38:42;5.30;99.90
13223;DHT22;6676;45.192;5.722;2023-02-12T10:44:16;5.60;99.90
13223;DHT22;6676;45.192;5.722;2023-02-12T10:47:11;5.60;99.90
13223;DHT22;6676;45.192;5.722;2023-02-12T10:53:04;5.80;99.90
13223;DHT22;6676;45.192;5.722;2023-02-12T10:56:11;5.90;99.90
13223;DHT22;6676;45.192;5.722;2023-02-12T10:59:03;6.00;99.90
13223;DHT22;6676;45.192;5.722;2023-02-12T11:01:55;6.10;99.90
13223;DHT22;6676;45.192;5.722;2023-02-12T11:04:47;6.20;99.90
13223;DHT22;6676;45.192;5.722;2023-02-12T11:07:46;6.30;99.90
13223;DHT22;6676;45.192;5.722;2023-02-12T11:27:33;6.80;99.90
13223;DHT22;6676;45.192;5.722;2023-02-12T11:30:26;6.90;99.90
13223;DHT22;6676;45.192;5.722;2023-02-12T11:33:23;7.00;99.90
13223;DHT22;6676;45.192;5.722;2023-02-12T11:36:18;7.10;99.90
13223;DHT22;6676;45.192;5.722;2023-02-12T11:39:18;7.20;99.90
13223;DHT22;6676;45.192;5.722;2023-02-12T11:42:17;7.30;99.90
13223;DHT22;6676;45.192;5.722;2023-02-12T11:45:17;7.40;99.90
13223;DHT22;6676;45.192;5.722;2023-02-12T11:52:23;7.60;99.90
13223;DHT22;6676;45.192;5.722;2023-02-12T11:55:21;7.60;99.90
13223;DHT22;6676;45.192;5.722;2023-02-12T11:58:14;7.80;99.90
13223;DHT22;6676;45.192;5.722;2023-02-12T12:14:47;7.80;99.90
13223;DHT22;6676;45.192;5.722;2023-02-12T12:20:53;8.50;99.90
13223;DHT22;6676;45.192;5.722;2023-02-12T12:49:22;9.00;99.90
13223;DHT22;6676;45.192;5.722;2023-02-12T12:55:50;9.20;99.90
13223;DHT22;6676;45.192;5.722;2023-02-12T12:58:59;9.30;99.90
13223;DHT22;6676;45.192;5.722;2023-02-12T13:02:03;9.30;99.90
13223;DHT22;6676;45.192;5.722;2023-02-12T13:05:22;9.40;99.90
13223;DHT22;6676;45.192;5.722;2023-02-12T13:08:20;9.40;99.90
13223;DHT22;6676;45.192;5.722;2023-02-12T13:11:20;9.50;99.90
13223;DHT22;6676;45.192;5.722;2023-02-12T13:14:26;9.50;99.90
13223;DHT22;6676;45.192;5.722;2023-02-12T13:17:21;9.60;99.90
13223;DHT22;6676;45.192;5.722;2023-02-12T13:20:16;9.70;99.90
13223;DHT22;6676;45.192;5.722;2023-02-12T13:23:14;9.80;99.90
13223;DHT22;6676;45.192;5.722;2023-02-12T13:26:12;9.80;99.90
13223;DHT22;6676;45.192;5.722;2023-02-12T13:29:05;9.90;99.90
13223;DHT22;6676;45.192;5.722;2023-02-12T13:36:49;10.00;99.90
13223;DHT22;6676;45.192;5.722;2023-02-12T13:39:44;10.00;99.90
13223;DHT22;6676;45.192;5.722;2023-02-12T13:42:49;10.10;99.90
13223;DHT22;6676;45.192;5.722;2023-02-12T13:45:45;10.20;99.90
13223;DHT22;6676;45.192;5.722;2023-02-12T15:53:22;11.30;99.90
13223;DHT22;6676;45.192;5.722;2023-02-12T15:56:16;11.20;99.90
13223;DHT22;6676;45.192;5.722;2023-02-12T15:59:17;11.20;99.80
13223;DHT22;6676;45.192;5.722;2023-02-12T16:02:20;11.10;99.70
13223;DHT22;6676;45.192;5.722;2023-02-12T16:05:23;11.10;99.90
13223;DHT22;6676;45.192;5.722;2023-02-12T16:08:23;10.90;99.90
13223;DHT22;6676;45.192;5.722;2023-02-12T20:59:18;5.80;99.90
13223;DHT22;6676;45.192;5.722;2023-02-12T21:02:14;5.70;99.90
13223;DHT22;6676;45.192;5.722;2023-02-12T21:05:09;5.70;99.90
13223;DHT22;6676;45.192;5.722;2023-02-12T21:08:00;5.60;99.90
13223;DHT22;6676;45.192;5.722;2023-02-12T21:10:59;5.60;99.90
13223;DHT22;6676;45.192;5.722;2023-02-12T21:13:52;5.70;99.90
13223;DHT22;6676;45.192;5.722;2023-02-12T21:16:45;5.60;99.90
13223;DHT22;6676;45.192;5.722;2023-02-12T21:19:37;5.60;99.90
13223;DHT22;6676;45.192;5.722;2023-02-12T21:22:31;5.60;99.90
13223;DHT22;6676;45.192;5.722;2023-02-12T21:25:22;5.60;99.90
13223;DHT22;6676;45.192;5.722;2023-02-12T21:28:13;5.60;99.90
13223;DHT22;6676;45.192;5.722;2023-02-12T21:31:10;5.50;99.90
13223;DHT22;6676;45.192;5.722;2023-02-12T21:34:04;5.50;99.90
13223;DHT22;6676;45.192;5.722;2023-02-12T21:36:57;5.50;99.90
13223;DHT22;6676;45.192;5.722;2023-02-12T21:39:49;5.50;99.90
13223;DHT22;6676;45.192;5.722;2023-02-12T21:42:41;5.40;99.90
13223;DHT22;6676;45.192;5.722;2023-02-12T21:45:33;5.40;99.90
13223;DHT22;6676;45.192;5.722;2023-02-12T21:48:24;5.30;99.90
13223;DHT22;6676;45.192;5.722;2023-02-12T21:51:21;5.30;99.90
13223;DHT22;6676;45.192;5.722;2023-02-12T21:54:14;5.30;99.90
13223;DHT22;6676;45.192;5.722;2023-02-12T21:57:06;5.30;99.90
13223;DHT22;6676;45.192;5.722;2023-02-12T22:00:08;5.20;99.90
13223;DHT22;6676;45.192;5.722;2023-02-12T22:03:03;5.20;99.90
13223;DHT22;6676;45.192;5.722;2023-02-12T22:06:00;5.20;99.90
13223;DHT22;6676;45.192;5.722;2023-02-12T22:33:41;4.80;99.90
13223;DHT22;6676;45.192;5.722;2023-02-12T22:36:34;4.80;99.90
13223;DHT22;6676;45.192;5.722;2023-02-12T22:39:27;4.80;99.90
13223;DHT22;6676;45.192;5.722;2023-02-12T22:42:19;4.80;99.90
13223;DHT22;6676;45.192;5.722;2023-02-12T23:02:22;4.90;99.90
13223;DHT22;6676;45.192;5.722;2023-02-12T23:05:15;4.80;99.90
13223;DHT22;6676;45.192;5.722;2023-02-12T23:08:07;4.60;99.90
13223;DHT22;6676;45.192;5.722;2023-02-12T23:10:58;4.60;99.90
13223;DHT22;6676;45.192;5.722;2023-02-12T23:13:50;4.50;99.90
13223;DHT22;6676;45.192;5.722;2023-02-12T23:16:42;4.60;99.90
13223;DHT22;6676;45.192;5.722;2023-02-12T23:19:33;4.60;99.90
13223;DHT22;6676;45.192;5.722;2023-02-12T23:22:25;4.50;99.90
13223;DHT22;6676;45.192;5.722;2023-02-12T23:25:16;4.50;99.90
13223;DHT22;6676;45.192;5.722;2023-02-12T23:28:08;4.40;99.90
13223;DHT22;6676;45.192;5.722;2023-02-12T23:31:01;4.40;99.90
13223;DHT22;6676;45.192;5.722;2023-02-12T23:33:53;4.30;99.90
13223;DHT22;6676;45.192;5.722;2023-02-12T23:39:45;4.20;99.90
13223;DHT22;6676;45.192;5.722;2023-02-12T23:42:37;4.20;99.90
13223;DHT22;6676;45.192;5.722;2023-02-12T23:45:29;4.20;99.90
13223;DHT22;6676;45.192;5.722;2023-02-12T23:48:21;4.20;99.90
13223;DHT22;6676;45.192;5.722;2023-02-12T23:51:12;4.20;99.90
13223;DHT22;6676;45.192;5.722;2023-02-12T23:54:04;4.20;99.90
13223;DHT22;6676;45.192;5.722;2023-02-12T23:56:58;4.20;99.90
13223;DHT22;6676;45.192;5.722;2023-02-12T23:59:49;4.20;99.90
